Time;durP1;ratioP1;P1;durP2;ratioP2;P2;SDS_P1;SDS_P2;PMS_P1;PMS_P2;Temp;Humidity;BMP_temperature;BMP_pressure;BME280_temperature;BME280_humidity;BME280_pressure;Samples;Min_cycle;Max_cycle;Signal;HPM_P1;HPM_P2
2022/02/04 00:08:40;;;;;;;23.33;14.63;;;6.90;99.90;;;;;;5056971;28;20225;-42
2022/02/04 00:22:35;;;;;;;23.70;14.40;;;6.90;99.90;;;;;;5099469;28;20587;-42
2022/02/04 00:25:02;;;;;;;22.13;14.47;;;6.90;99.90;;;;;;5100292;28;20293;-41
2022/02/04 00:27:29;;;;;;;24.57;14.20;;;6.90;99.90;;;;;;5082192;28;22058;-43
2022/02/04 00:30:03;;;;;;;23.03;14.97;;;6.90;99.90;;;;;;5099802;28;20240;-40
2022/02/04 00:32:32;;;;;;;24.63;14.70;;;6.90;99.90;;;;;;5084699;28;20201;-41
2022/02/04 00:35:10;;;;;;;21.73;14.90;;;6.90;99.90;;;;;;5100105;28;20209;-41
2022/02/04 00:37:52;;;;;;;23.03;13.97;;;6.90;99.90;;;;;;5098513;28;20386;-43
2022/02/04 00:40:22;;;;;;;22.60;13.87;;;6.90;99.90;;;;;;5096086;28;20185;-43
2022/02/04 00:42:51;;;;;;;22.93;14.47;;;6.90;99.90;;;;;;5076875;28;20218;-44
2022/02/04 00:45:23;;;;;;;22.67;14.30;;;6.90;99.90;;;;;;5093895;28;20197;-41
2022/02/04 00:47:56;;;;;;;27.57;15.30;;;6.80;99.90;;;;;;5091955;28;20672;-42
2022/02/04 00:50:29;;;;;;;25.77;15.17;;;6.80;99.90;;;;;;5095881;28;20215;-43
2022/02/04 00:53:09;;;;;;;24.60;14.90;;;6.80;99.90;;;;;;5099656;28;20347;-42
2022/02/04 00:55:44;;;;;;;25.30;15.30;;;6.80;99.90;;;;;;5093280;28;20189;-42
2022/02/04 01:26:03;;;;;;;33.43;17.47;;;6.90;99.90;;;;;;5080153;28;20684;-43
2022/02/04 01:28:33;;;;;;;28.07;17.23;;;6.80;99.90;;;;;;5082737;28;20269;-43
2022/02/04 01:31:00;;;;;;;29.20;17.43;;;6.90;99.90;;;;;;5070355;28;20217;-44
2022/02/04 01:33:28;;;;;;;28.33;16.70;;;6.90;99.90;;;;;;5074289;28;20209;-44
2022/02/04 01:35:55;;;;;;;28.17;17.40;;;6.90;99.90;;;;;;5082109;28;20635;-43
2022/02/04 01:38:23;;;;;;;30.67;17.17;;;6.90;99.90;;;;;;5081152;28;20222;-43
2022/02/04 01:40:50;;;;;;;29.33;18.23;;;6.90;99.90;;;;;;5085304;28;20575;-43
2022/02/04 01:43:21;;;;;;;32.93;18.13;;;6.90;99.90;;;;;;5081198;28;20213;-44
2022/02/04 01:45:53;;;;;;;30.87;18.73;;;6.90;99.90;;;;;;5070223;28;20230;-42
2022/02/04 01:48:20;;;;;;;30.77;18.93;;;6.90;99.90;;;;;;5074842;28;20214;-43
2022/02/04 01:50:48;;;;;;;28.33;17.40;;;6.90;99.90;;;;;;5083006;28;20214;-44
2022/02/04 01:53:17;;;;;;;27.37;18.03;;;6.90;99.90;;;;;;5082076;28;20206;-42
2022/02/04 01:55:46;;;;;;;32.10;19.43;;;6.90;99.90;;;;;;5085075;28;20198;-44
2022/02/04 01:58:13;;;;;;;27.47;18.03;;;6.90;99.90;;;;;;5082247;28;20221;-44
2022/02/04 02:00:41;;;;;;;31.07;19.10;;;6.90;99.90;;;;;;5069116;28;20256;-42
2022/02/04 02:03:10;;;;;;;33.23;19.70;;;6.90;99.90;;;;;;5083073;28;20190;-42
2022/02/04 02:05:37;;;;;;;31.67;18.67;;;6.90;99.90;;;;;;5076664;28;20205;-44
2022/02/04 02:08:09;;;;;;;32.63;18.67;;;6.90;99.90;;;;;;5079179;28;20229;-41
2022/02/04 02:10:35;;;;;;;33.63;18.60;;;6.90;99.90;;;;;;5080724;28;20326;-43
2022/02/04 02:13:12;;;;;;;37.03;20.87;;;6.90;99.90;;;;;;5082007;28;20194;-43
2022/02/04 02:15:48;;;;;;;34.83;19.73;;;6.90;99.90;;;;;;5064236;28;20213;-42
2022/02/04 02:46:46;;;;;;;31.73;19.13;;;6.90;99.90;;;;;;5052987;28;20297;-43
2022/02/04 02:49:36;;;;;;;33.70;19.80;;;6.90;99.90;;;;;;5070857;28;20225;-47
2022/02/04 02:52:14;;;;;;;39.60;21.93;;;6.90;99.90;;;;;;5083177;28;20191;-44
2022/02/04 02:55:05;;;;;;;37.80;20.83;;;7.00;99.90;;;;;;5083153;28;20205;-44
2022/02/04 03:00:29;;;;;;;35.03;20.63;;;6.90;99.90;;;;;;5080462;28;20300;-45
2022/02/04 03:03:01;;;;;;;33.10;20.60;;;7.00;99.90;;;;;;5069197;28;20697;-43
2022/02/04 03:05:28;;;;;;;36.87;18.87;;;6.90;99.90;;;;;;5072524;28;20213;-44
2022/02/04 03:07:55;;;;;;;33.37;20.90;;;7.00;99.90;;;;;;5083103;28;20225;-43
2022/02/04 03:10:23;;;;;;;37.30;20.80;;;6.90;99.90;;;;;;5079510;28;20214;-43
2022/02/04 03:12:50;;;;;;;37.90;21.27;;;7.00;99.90;;;;;;5083306;28;20623;-42
2022/02/04 03:15:17;;;;;;;33.83;19.33;;;7.00;99.90;;;;;;5080263;28;20548;-45
2022/02/04 03:17:46;;;;;;;36.40;21.60;;;7.00;99.90;;;;;;5082994;28;20236;-42
2022/02/04 03:20:14;;;;;;;36.83;21.07;;;7.00;99.90;;;;;;5062352;28;20210;-45
2022/02/04 03:22:41;;;;;;;36.03;21.03;;;7.00;99.90;;;;;;5082142;28;20670;-41
2022/02/04 03:25:11;;;;;;;40.43;21.47;;;7.00;99.90;;;;;;5090226;28;20197;-43
2022/02/04 03:27:45;;;;;;;38.00;23.37;;;7.00;99.90;;;;;;5091245;28;20224;-42
2022/02/04 03:30:17;;;;;;;40.07;21.73;;;7.00;99.90;;;;;;5062507;28;20221;-44
2022/02/04 03:32:50;;;;;;;38.77;22.90;;;7.00;99.90;;;;;;5079619;28;20213;-43
2022/02/04 03:35:20;;;;;;;42.13;22.90;;;7.00;99.90;;;;;;5083650;28;20202;-43
2022/02/04 03:37:48;;;;;;;37.80;22.67;;;7.00;99.90;;;;;;5080006;28;20214;-43
2022/02/04 03:40:15;;;;;;;41.00;23.43;;;7.00;99.90;;;;;;5083376;28;20254;-42
2022/02/04 03:42:43;;;;;;;40.50;23.63;;;7.00;99.90;;;;;;5076963;28;20193;-41
2022/02/04 03:45:10;;;;;;;38.57;23.20;;;7.00;99.90;;;;;;5068228;28;20206;-42
2022/02/04 03:47:37;;;;;;;35.07;22.67;;;7.00;99.90;;;;;;5078847;28;20224;-42
2022/02/04 03:50:05;;;;;;;38.53;23.50;;;7.00;99.90;;;;;;5083026;28;20212;-42
2022/02/04 03:52:32;;;;;;;40.73;22.87;;;7.00;99.90;;;;;;5080457;28;20202;-43
2022/02/04 03:54:59;;;;;;;38.97;22.00;;;7.00;99.90;;;;;;5082465;28;20206;-41
2022/02/04 03:57:26;;;;;;;36.40;22.00;;;7.00;99.90;;;;;;5081341;28;20222;-41
2022/02/04 03:59:54;;;;;;;40.47;23.53;;;7.00;99.90;;;;;;5066195;28;20202;-46
2022/02/04 04:02:21;;;;;;;36.07;21.47;;;7.00;99.90;;;;;;5081332;28;20201;-41
2022/02/04 04:04:48;;;;;;;36.70;23.83;;;7.00;99.90;;;;;;5080083;28;20264;-44
2022/02/04 04:07:15;;;;;;;44.13;25.33;;;7.00;99.90;;;;;;5082721;28;20225;-42
2022/02/04 04:09:49;;;;;;;39.40;24.43;;;7.00;99.90;;;;;;5078961;28;20213;-42
2022/02/04 04:12:17;;;;;;;43.10;24.53;;;7.00;99.90;;;;;;5076176;28;20249;-42
2022/02/04 04:14:45;;;;;;;38.10;23.47;;;7.00;99.90;;;;;;5059621;28;20609;-45
2022/02/04 04:17:13;;;;;;;41.47;24.67;;;7.00;99.90;;;;;;5077735;28;20245;-43
2022/02/04 04:19:40;;;;;;;44.37;25.10;;;7.00;99.90;;;;;;5077766;28;20194;-46
2022/02/04 04:22:07;;;;;;;44.77;26.07;;;7.00;99.90;;;;;;5082710;28;20623;-44
2022/02/04 04:24:33;;;;;;;38.50;23.57;;;6.90;99.90;;;;;;5079767;28;20209;-42
2022/02/04 04:27:00;;;;;;;41.87;25.90;;;6.90;99.90;;;;;;5082349;28;20846;-42
2022/02/04 04:29:27;;;;;;;40.23;23.47;;;6.90;99.90;;;;;;5080807;28;20205;-42
2022/02/04 04:31:54;;;;;;;43.77;25.53;;;7.00;99.90;;;;;;5066434;28;20218;-42
2022/02/04 04:34:22;;;;;;;47.33;28.43;;;7.00;99.90;;;;;;5082264;28;20540;-42
2022/02/04 04:36:49;;;;;;;41.43;25.43;;;6.90;99.90;;;;;;5081220;28;20221;-42
2022/02/04 04:39:21;;;;;;;43.50;24.50;;;6.90;99.90;;;;;;5086610;28;20194;-43
2022/02/04 04:41:58;;;;;;;46.53;27.23;;;6.90;99.90;;;;;;5082717;28;20194;-43
2022/02/04 04:44:53;;;;;;;40.90;25.73;;;6.90;99.90;;;;;;5084686;28;20202;-42
2022/02/04 05:26:42;;;;;;;46.67;24.53;;;6.80;99.90;;;;;;5019813;28;20203;-43
2022/02/04 05:29:12;;;;;;;53.37;26.60;;;6.80;99.90;;;;;;5063352;28;20214;-43
2022/02/04 05:31:39;;;;;;;63.83;27.90;;;6.80;99.90;;;;;;5085667;28;20226;-42
2022/02/04 05:34:07;;;;;;;53.10;25.23;;;6.80;99.90;;;;;;5067386;28;20217;-49
2022/02/04 05:36:38;;;;;;;50.23;25.10;;;6.80;99.90;;;;;;5084363;28;20233;-42
2022/02/04 05:39:06;;;;;;;55.13;25.33;;;6.80;99.90;;;;;;5075868;28;20284;-43
2022/02/04 05:41:36;;;;;;;48.80;25.30;;;6.80;99.90;;;;;;5074229;28;20198;-43
2022/02/04 05:44:08;;;;;;;52.07;25.03;;;6.80;99.90;;;;;;5081816;28;20913;-46
2022/02/04 05:46:46;;;;;;;50.53;22.93;;;6.80;99.90;;;;;;5084466;28;20588;-44
2022/02/04 05:49:15;;;;;;;42.23;22.97;;;6.80;99.90;;;;;;5069197;28;20213;-47
2022/02/04 05:51:48;;;;;;;44.27;21.83;;;6.80;99.90;;;;;;5073359;28;20226;-42
2022/02/04 05:54:22;;;;;;;38.73;20.67;;;6.80;99.90;;;;;;5071025;28;20268;-44
2022/02/04 05:56:57;;;;;;;50.03;23.77;;;6.80;99.90;;;;;;5074279;28;20245;-45
2022/02/04 05:59:33;;;;;;;43.90;23.17;;;6.80;99.90;;;;;;5083538;28;20281;-45
2022/02/04 06:02:09;;;;;;;41.87;22.13;;;6.80;99.90;;;;;;5073011;28;20349;-44
2022/02/04 06:04:40;;;;;;;45.17;21.13;;;6.80;99.90;;;;;;5072859;28;20600;-45
2022/02/04 06:07:26;;;;;;;36.93;20.90;;;6.80;99.90;;;;;;5080876;28;20214;-45
2022/02/04 06:23:53;;;;;;;39.03;22.23;;;6.80;99.90;;;;;;5062779;28;20199;-41
2022/02/04 06:26:21;;;;;;;33.50;19.23;;;6.80;99.90;;;;;;5062191;28;20229;-40
2022/02/04 06:28:49;;;;;;;33.87;20.27;;;6.80;99.90;;;;;;5077857;28;20193;-40
2022/02/04 06:31:16;;;;;;;36.17;20.83;;;6.80;99.90;;;;;;5077409;28;20214;-43
2022/02/04 06:33:44;;;;;;;39.67;22.10;;;6.80;99.90;;;;;;5073351;28;20209;-49
2022/02/04 06:36:11;;;;;;;37.90;21.00;;;6.80;99.90;;;;;;5061854;28;20216;-41
2022/02/04 06:38:37;;;;;;;40.90;23.00;;;6.80;99.90;;;;;;5070425;28;20721;-41
2022/02/04 06:41:04;;;;;;;42.70;21.43;;;6.80;99.90;;;;;;5061444;28;20182;-42
2022/02/04 06:43:33;;;;;;;38.80;21.27;;;6.90;99.90;;;;;;5079683;28;20221;-42
2022/02/04 06:46:00;;;;;;;35.47;21.33;;;6.90;99.90;;;;;;5070510;28;20198;-41
2022/02/04 06:48:26;;;;;;;35.20;20.77;;;6.90;99.90;;;;;;5080571;28;20231;-40
2022/02/04 06:50:53;;;;;;;42.40;22.37;;;6.90;99.90;;;;;;5060862;28;20202;-42
2022/02/04 06:53:20;;;;;;;39.40;21.53;;;6.90;99.90;;;;;;5071287;28;20191;-43
2022/02/04 06:55:47;;;;;;;39.53;21.87;;;6.90;99.90;;;;;;5066334;28;20206;-40
2022/02/04 06:58:15;;;;;;;36.80;21.33;;;6.90;99.90;;;;;;5077594;28;20224;-41
2022/02/04 07:00:43;;;;;;;37.53;21.37;;;6.90;99.90;;;;;;5073547;28;20267;-41
2022/02/04 07:03:10;;;;;;;41.90;21.70;;;6.90;99.90;;;;;;5079995;28;20198;-42
2022/02/04 07:05:42;;;;;;;40.40;22.00;;;7.00;99.90;;;;;;5073944;28;20202;-43
2022/02/04 07:08:16;;;;;;;33.90;20.87;;;7.00;99.90;;;;;;5057233;28;21859;-42
2022/02/04 07:11:03;;;;;;;38.70;21.17;;;7.00;99.90;;;;;;5068037;28;20575;-45
2022/02/04 07:13:41;;;;;;;49.77;22.97;;;7.00;99.90;;;;;;5066889;28;20209;-44
2022/02/04 07:16:25;;;;;;;46.73;22.97;;;7.00;99.90;;;;;;5071203;28;20209;-48
2022/02/04 07:21:58;;;;;;;33.73;20.60;;;7.00;99.90;;;;;;5062279;28;20194;-45
2022/02/04 07:24:25;;;;;;;37.47;21.33;;;7.00;99.90;;;;;;5066428;28;20205;-42
2022/02/04 07:26:52;;;;;;;38.23;20.33;;;7.00;99.90;;;;;;5072377;28;20248;-43
2022/02/04 07:29:20;;;;;;;34.13;21.27;;;7.00;99.90;;;;;;5075724;28;20983;-42
2022/02/04 07:31:49;;;;;;;40.10;22.40;;;7.00;99.90;;;;;;5078639;28;20285;-42
2022/02/04 07:34:22;;;;;;;33.93;19.90;;;7.00;99.90;;;;;;5063324;28;20201;-44
2022/02/04 07:42:18;;;;;;;45.90;23.00;;;7.10;99.90;;;;;;5062141;28;20266;-42
2022/02/04 07:44:45;;;;;;;46.57;24.03;;;7.10;99.90;;;;;;5073255;28;20214;-41
2022/02/04 07:47:13;;;;;;;43.50;23.63;;;7.10;99.90;;;;;;5073115;28;20530;-43
2022/02/04 07:49:40;;;;;;;43.07;22.60;;;7.10;99.90;;;;;;5072161;28;20206;-42
2022/02/04 07:52:07;;;;;;;36.77;18.83;;;7.10;99.90;;;;;;5067613;28;20217;-43
2022/02/04 07:54:34;;;;;;;43.30;22.00;;;7.20;99.90;;;;;;5063067;28;20206;-42
2022/02/04 07:57:00;;;;;;;34.00;18.83;;;7.10;99.90;;;;;;5066257;28;20221;-41
2022/02/04 07:59:27;;;;;;;47.27;24.33;;;7.10;99.90;;;;;;5071702;28;20687;-42
2022/02/04 08:01:54;;;;;;;35.93;22.63;;;7.20;99.90;;;;;;5069116;28;20583;-43
2022/02/04 08:04:26;;;;;;;39.73;22.80;;;7.20;99.90;;;;;;5063429;28;20205;-41
2022/02/04 08:06:58;;;;;;;40.83;23.20;;;7.20;99.90;;;;;;5077012;28;21089;-41
2022/02/04 08:09:33;;;;;;;37.10;20.77;;;7.20;99.90;;;;;;5069565;28;20209;-42
2022/02/04 08:12:26;;;;;;;53.83;26.33;;;7.20;99.90;;;;;;5075165;28;20760;-42
2022/02/04 08:15:00;;;;;;;33.57;19.37;;;7.20;99.90;;;;;;5081447;28;20851;-41
2022/02/04 08:20:37;;;;;;;43.97;24.37;;;7.30;99.90;;;;;;5039753;28;20214;-40
2022/02/04 08:23:20;;;;;;;37.03;21.97;;;7.30;99.90;;;;;;5080007;28;20205;-40
2022/02/04 08:34:38;;;;;;;40.40;21.50;;;7.40;99.90;;;;;;5063056;28;20190;-42
2022/02/04 08:53:56;;;;;;;34.47;21.27;;;7.50;99.90;;;;;;5079398;28;20212;-42
2022/02/04 08:56:35;;;;;;;37.47;22.43;;;7.50;99.90;;;;;;5062758;28;21583;-45
2022/02/04 08:59:09;;;;;;;30.90;20.53;;;7.50;99.90;;;;;;5074959;28;20205;-46
2022/02/04 09:01:41;;;;;;;37.20;21.13;;;7.60;99.90;;;;;;5074296;28;21011;-42
2022/02/04 09:04:14;;;;;;;38.27;22.73;;;7.60;99.90;;;;;;5074705;28;20289;-41
2022/02/04 09:06:46;;;;;;;29.30;18.97;;;7.60;99.90;;;;;;5080735;28;20314;-44
2022/02/04 09:09:15;;;;;;;32.17;21.17;;;7.60;99.90;;;;;;5076042;28;20693;-42
2022/02/04 09:11:46;;;;;;;26.60;19.50;;;7.70;99.90;;;;;;5061631;28;20232;-42
2022/02/04 09:17:22;;;;;;;32.03;19.77;;;7.70;99.90;;;;;;5082784;28;20331;-42
2022/02/04 09:20:00;;;;;;;28.63;19.03;;;7.80;99.90;;;;;;5075606;28;20672;-44
2022/02/04 09:22:40;;;;;;;36.30;22.03;;;7.80;99.90;;;;;;5070070;28;20273;-42
2022/02/04 09:25:09;;;;;;;24.30;16.73;;;7.80;99.90;;;;;;5080171;28;20274;-41
2022/02/04 09:27:36;;;;;;;33.03;19.47;;;7.80;99.90;;;;;;5055463;28;21827;-41
2022/02/04 09:30:06;;;;;;;28.83;18.60;;;7.80;99.90;;;;;;5071087;28;20202;-41
2022/02/04 09:32:38;;;;;;;28.53;19.80;;;7.90;99.90;;;;;;5064872;28;20222;-41
2022/02/04 09:35:07;;;;;;;33.13;21.47;;;7.90;99.90;;;;;;5072249;28;20220;-41
2022/02/04 09:37:34;;;;;;;26.20;16.97;;;7.90;99.90;;;;;;5073148;28;20233;-40
2022/02/04 09:40:01;;;;;;;31.23;19.47;;;7.90;99.90;;;;;;5076398;28;20674;-44
2022/02/04 09:42:29;;;;;;;28.97;18.20;;;8.00;99.90;;;;;;5057374;28;20198;-41
2022/02/04 09:44:56;;;;;;;31.43;19.80;;;8.00;99.90;;;;;;5072452;28;20198;-42
2022/02/04 09:47:25;;;;;;;35.43;19.20;;;8.00;99.90;;;;;;5059626;28;20229;-41
2022/02/04 09:49:57;;;;;;;40.90;20.27;;;8.10;99.90;;;;;;5076758;28;20602;-41
2022/02/04 10:07:01;;;;;;;25.30;17.77;;;8.20;99.90;;;;;;5077032;28;20674;-42
2022/02/04 10:09:47;;;;;;;25.30;17.80;;;8.30;99.90;;;;;;5076095;28;20190;-40
2022/02/04 10:12:32;;;;;;;24.03;16.97;;;8.30;99.90;;;;;;5075364;28;20224;-42
2022/02/04 10:15:19;;;;;;;26.90;17.23;;;8.30;99.90;;;;;;5065667;28;20202;-46
2022/02/04 10:18:07;;;;;;;22.80;15.97;;;8.30;99.90;;;;;;5066803;28;20229;-40
2022/02/04 10:20:35;;;;;;;26.27;16.80;;;8.40;99.90;;;;;;5067326;28;20458;-45
2022/02/04 10:23:02;;;;;;;24.13;15.77;;;8.40;99.90;;;;;;5066214;28;20209;-41
2022/02/04 10:25:33;;;;;;;27.97;17.33;;;8.40;99.90;;;;;;5061304;28;22360;-44
2022/02/04 10:28:04;;;;;;;28.60;17.13;;;8.40;99.90;;;;;;5060906;28;20214;-42
2022/02/04 10:30:32;;;;;;;20.00;13.60;;;8.40;99.90;;;;;;5062462;28;20213;-42
2022/02/04 10:33:00;;;;;;;22.67;15.87;;;8.40;99.90;;;;;;5060493;28;20226;-42
2022/02/04 10:35:31;;;;;;;19.23;13.97;;;8.50;99.90;;;;;;5072606;28;20259;-43
2022/02/04 10:38:11;;;;;;;25.37;15.93;;;8.50;99.90;;;;;;5072898;28;20937;-41
2022/02/04 10:40:48;;;;;;;19.77;15.33;;;8.50;99.90;;;;;;5059828;28;20206;-40
2022/02/04 10:43:28;;;;;;;23.27;16.17;;;8.50;99.90;;;;;;5069978;28;20197;-40
2022/02/04 10:46:10;;;;;;;21.33;13.70;;;8.60;99.90;;;;;;5057306;28;20298;-40
2022/02/04 10:49:00;;;;;;;26.03;15.80;;;8.60;99.90;;;;;;5065533;28;20193;-43
2022/02/04 10:51:54;;;;;;;26.23;14.87;;;8.50;99.90;;;;;;5063178;28;20691;-41
2022/02/04 10:57:38;;;;;;;21.93;14.00;;;8.60;99.90;;;;;;5068531;28;20218;-40
2022/02/04 11:00:14;;;;;;;23.57;14.13;;;8.60;99.90;;;;;;5060230;28;20971;-41
2022/02/04 11:02:56;;;;;;;29.60;13.70;;;8.60;99.90;;;;;;5057651;28;20206;-42
2022/02/04 11:05:30;;;;;;;15.97;12.03;;;8.70;99.90;;;;;;5063121;28;20680;-41
2022/02/04 11:30:55;;;;;;;15.13;12.10;;;8.80;99.90;;;;;;5074199;28;20676;-44
2022/02/04 11:33:52;;;;;;;16.70;12.83;;;8.90;99.90;;;;;;5071539;28;20205;-42
2022/02/04 11:36:46;;;;;;;20.30;12.93;;;9.00;99.90;;;;;;5073762;28;20283;-43
2022/02/04 11:51:47;;;;;;;12.67;9.90;;;9.30;99.90;;;;;;5053119;28;20298;-43
2022/02/04 11:54:39;;;;;;;12.90;9.87;;;9.30;99.90;;;;;;5074715;28;20717;-42
2022/02/04 11:57:20;;;;;;;15.80;11.00;;;9.40;99.90;;;;;;5063516;28;20229;-42
2022/02/04 11:59:56;;;;;;;17.00;10.60;;;9.40;99.90;;;;;;5066200;28;20547;-42
2022/02/04 12:02:40;;;;;;;11.50;10.33;;;9.30;99.90;;;;;;5060443;28;20205;-47
2022/02/04 12:05:26;;;;;;;13.60;10.50;;;9.30;99.90;;;;;;5066118;28;20281;-44
2022/02/04 12:07:58;;;;;;;12.03;9.30;;;9.20;99.90;;;;;;5064037;28;20229;-45
2022/02/04 12:10:26;;;;;;;13.27;9.10;;;9.30;99.90;;;;;;5076008;28;20535;-44
2022/02/04 12:13:08;;;;;;;10.67;9.00;;;9.20;99.90;;;;;;5064494;28;21863;-47
2022/02/04 12:15:37;;;;;;;8.20;6.67;;;9.20;99.90;;;;;;5073501;28;20322;-43
2022/02/04 12:18:06;;;;;;;11.53;7.73;;;9.20;99.90;;;;;;5055590;28;20217;-47
2022/02/04 12:20:57;;;;;;;10.30;7.90;;;9.20;99.90;;;;;;5079073;28;20198;-44
2022/02/04 12:23:48;;;;;;;9.07;8.13;;;9.10;99.90;;;;;;5065305;28;20198;-41
2022/02/04 12:26:29;;;;;;;6.57;5.90;;;9.10;99.90;;;;;;5077310;28;20205;-45
2022/02/04 12:28:58;;;;;;;9.10;8.17;;;9.10;99.90;;;;;;5071047;28;20186;-45
2022/02/04 12:31:26;;;;;;;9.13;7.27;;;9.10;99.90;;;;;;5054329;28;20198;-45
2022/02/04 12:33:56;;;;;;;9.10;8.03;;;9.10;99.90;;;;;;5058532;28;20226;-44
2022/02/04 12:36:26;;;;;;;13.63;8.00;;;9.10;99.90;;;;;;5067710;28;20209;-42
2022/02/04 12:38:57;;;;;;;9.63;8.40;;;9.00;99.90;;;;;;5057714;28;20208;-42
2022/02/04 12:41:27;;;;;;;7.73;6.80;;;9.00;99.90;;;;;;5076372;28;20285;-43
2022/02/04 12:43:56;;;;;;;9.80;7.60;;;9.00;99.90;;;;;;5069911;28;20518;-45
2022/02/04 12:46:23;;;;;;;9.13;8.20;;;9.00;99.90;;;;;;5072188;28;20198;-46
2022/02/04 12:48:58;;;;;;;9.97;7.47;;;9.00;99.90;;;;;;5052321;28;20232;-43
2022/02/04 12:51:39;;;;;;;12.50;8.33;;;9.00;99.90;;;;;;5076899;28;20201;-42
2022/02/04 12:54:07;;;;;;;11.67;8.67;;;9.00;99.90;;;;;;5055827;28;20226;-44
2022/02/04 12:56:38;;;;;;;10.33;8.00;;;8.90;99.90;;;;;;5070165;28;20609;-47
2022/02/04 12:59:39;;;;;;;10.20;8.00;;;8.90;99.90;;;;;;5063368;28;20318;-43
2022/02/04 13:02:19;;;;;;;11.43;6.47;;;9.00;99.90;;;;;;5067129;28;20231;-44
2022/02/04 13:07:45;;;;;;;9.53;7.23;;;8.90;99.90;;;;;;5073914;28;20268;-44
2022/02/04 13:10:19;;;;;;;9.60;7.07;;;8.90;99.90;;;;;;5066964;28;22761;-42
2022/02/04 13:12:52;;;;;;;7.97;6.13;;;8.90;99.90;;;;;;5081568;28;20210;-46
2022/02/04 13:15:19;;;;;;;11.33;6.77;;;8.90;99.90;;;;;;5079383;28;20194;-42
2022/02/04 13:17:46;;;;;;;7.77;6.00;;;8.90;99.90;;;;;;5079797;28;20232;-44
2022/02/04 13:20:16;;;;;;;6.30;5.40;;;8.90;99.90;;;;;;5061723;28;20201;-41
2022/02/04 13:22:43;;;;;;;8.97;6.17;;;8.90;99.90;;;;;;5074601;28;20191;-40
2022/02/04 13:25:14;;;;;;;8.17;5.57;;;8.90;99.90;;;;;;5063663;28;20740;-42
2022/02/04 13:28:04;;;;;;;10.40;6.37;;;8.90;99.90;;;;;;5077472;28;20213;-42
2022/02/04 13:30:32;;;;;;;10.23;5.70;;;8.90;99.90;;;;;;5078819;28;20221;-42
2022/02/04 13:32:59;;;;;;;6.23;5.40;;;8.90;99.90;;;;;;5078676;28;20209;-43
2022/02/04 13:35:35;;;;;;;6.63;5.90;;;8.90;99.90;;;;;;5068199;28;20574;-45
2022/02/04 13:38:09;;;;;;;10.00;6.27;;;8.90;99.90;;;;;;5066644;28;20225;-47
2022/02/04 13:40:46;;;;;;;6.87;5.13;;;8.90;99.90;;;;;;5063063;28;20202;-41
2022/02/04 13:43:30;;;;;;;9.90;6.03;;;8.90;99.90;;;;;;5074733;28;20243;-42
2022/02/04 13:46:09;;;;;;;18.47;8.63;;;8.90;99.90;;;;;;5078389;28;20190;-41
2022/02/04 13:48:56;;;;;;;10.30;6.00;;;8.80;99.90;;;;;;5077109;28;20194;-41
2022/02/04 13:51:40;;;;;;;7.90;5.50;;;8.80;99.90;;;;;;5059577;28;20217;-43
2022/02/04 13:54:20;;;;;;;7.33;5.10;;;8.80;99.90;;;;;;5074767;28;20210;-42
2022/02/04 13:56:54;;;;;;;6.13;4.80;;;8.80;99.90;;;;;;5072168;28;20888;-42
2022/02/04 13:59:38;;;;;;;4.83;3.97;;;8.80;99.90;;;;;;5070898;28;20845;-42
2022/02/04 14:02:11;;;;;;;4.80;4.00;;;8.80;99.90;;;;;;5076606;28;20207;-46
2022/02/04 14:04:51;;;;;;;4.77;3.40;;;8.80;99.90;;;;;;5077313;28;20322;-42
2022/02/04 14:07:20;;;;;;;8.57;4.10;;;8.80;99.90;;;;;;5065282;28;20287;-43
2022/02/04 14:09:55;;;;;;;5.73;3.40;;;8.80;99.90;;;;;;5081118;28;20197;-47
2022/02/04 14:12:23;;;;;;;3.00;2.67;;;8.90;99.90;;;;;;5053023;28;20732;-46
2022/02/04 14:15:00;;;;;;;3.93;3.40;;;8.90;99.90;;;;;;5073505;28;20263;-41
2022/02/04 14:17:28;;;;;;;3.07;2.77;;;8.90;99.90;;;;;;5063331;28;20233;-44
2022/02/04 14:19:55;;;;;;;4.77;3.10;;;8.90;99.90;;;;;;5066424;28;20894;-42
2022/02/04 14:22:21;;;;;;;6.10;3.97;;;8.90;99.90;;;;;;5065005;28;20714;-43
2022/02/04 14:24:49;;;;;;;3.40;3.00;;;8.90;99.90;;;;;;5075997;28;20192;-44
2022/02/04 14:27:16;;;;;;;8.13;4.00;;;9.00;99.90;;;;;;5062686;28;20229;-44
2022/02/04 14:29:51;;;;;;;8.70;4.07;;;9.00;99.90;;;;;;5078346;28;20225;-44
2022/02/04 14:32:23;;;;;;;7.43;3.47;;;8.90;99.90;;;;;;5066601;28;20193;-42
2022/02/04 14:35:06;;;;;;;6.03;3.53;;;8.90;99.90;;;;;;5078539;28;20229;-42
2022/02/04 14:54:06;;;;;;;3.87;3.20;;;8.80;99.90;;;;;;5060181;28;20960;-45
2022/02/04 15:00:03;;;;;;;4.67;3.30;;;8.70;99.90;;;;;;5075425;28;20209;-41
2022/02/04 15:02:21;;;;;;;6.87;3.03;;;8.70;99.90;;;;;;5080099;28;20303;-42
2022/02/04 15:04:51;;;;;;;4.30;3.60;;;8.80;99.90;;;;;;5068933;28;20200;-40
2022/02/04 15:07:18;;;;;;;3.73;3.27;;;8.80;99.90;;;;;;5075089;28;20229;-41
2022/02/04 15:09:51;;;;;;;7.03;4.10;;;8.80;99.90;;;;;;5062925;28;20584;-41
2022/02/04 15:12:18;;;;;;;3.90;3.60;;;8.80;99.90;;;;;;5074226;28;20205;-45
2022/02/04 15:14:46;;;;;;;4.43;3.70;;;8.80;99.90;;;;;;5069115;28;20205;-41
2022/02/04 15:17:13;;;;;;;5.67;3.40;;;8.80;99.90;;;;;;5074925;28;20238;-42
2022/02/04 15:19:42;;;;;;;3.33;3.07;;;8.80;99.90;;;;;;5072198;28;20566;-42
2022/02/04 15:22:11;;;;;;;8.97;4.63;;;8.80;99.90;;;;;;5079430;28;20213;-42
2022/02/04 15:24:38;;;;;;;3.83;3.20;;;8.80;99.90;;;;;;5066767;28;20725;-42
2022/02/04 15:27:06;;;;;;;4.50;3.33;;;8.80;99.90;;;;;;5060034;28;21012;-41
2022/02/04 15:29:35;;;;;;;9.65;6.18;;;8.70;99.90;;;;;;5074191;28;20553;-44
2022/02/04 15:32:03;;;;;;;5.35;4.75;;;8.90;99.90;;;;;;5075525;28;20456;-41
2022/02/04 15:34:30;;;;;;;5.07;3.87;;;9.00;99.90;;;;;;5074468;28;20228;-43
2022/02/04 15:36:57;;;;;;;4.60;4.20;;;8.80;99.90;;;;;;5063751;28;20448;-42
2022/02/04 15:39:29;;;;;;;4.77;3.83;;;8.80;99.90;;;;;;5074995;28;20209;-41
2022/02/04 15:42:03;;;;;;;4.70;4.20;;;8.70;99.90;;;;;;5059620;28;20209;-45
2022/02/04 15:44:40;;;;;;;6.00;4.40;;;8.60;99.90;;;;;;5064286;28;20194;-42
2022/02/04 15:47:25;;;;;;;7.43;3.97;;;8.60;99.90;;;;;;5069537;28;21223;-41
2022/02/04 15:50:06;;;;;;;4.33;3.37;;;8.50;99.90;;;;;;5064316;28;20201;-42
2022/02/04 15:52:54;;;;;;;12.33;5.10;;;8.50;99.90;;;;;;5073324;28;20222;-43
2022/02/04 15:55:49;;;;;;;7.80;4.40;;;8.50;99.90;;;;;;5061557;28;20233;-43
2022/02/04 15:58:25;;;;;;;7.07;4.73;;;8.50;99.90;;;;;;5064500;28;20222;-47
2022/02/04 16:01:12;;;;;;;11.87;5.00;;;8.50;99.90;;;;;;5069582;28;20189;-45
2022/02/04 16:03:48;;;;;;;7.07;4.20;;;8.50;99.90;;;;;;5072074;28;20435;-44
2022/02/04 16:06:17;;;;;;;14.90;5.37;;;8.50;99.90;;;;;;5066104;28;20452;-43
2022/02/04 16:08:43;;;;;;;9.00;4.83;;;8.50;99.90;;;;;;5065805;28;20190;-45
2022/02/04 16:11:30;;;;;;;7.30;3.87;;;8.40;99.90;;;;;;5056976;28;20528;-46
2022/02/04 16:14:07;;;;;;;7.00;4.17;;;8.40;99.90;;;;;;5063009;28;20660;-43
2022/02/04 16:16:38;;;;;;;4.73;3.30;;;8.40;99.90;;;;;;5071808;28;20214;-44
2022/02/04 16:19:09;;;;;;;5.80;3.80;;;8.30;99.90;;;;;;5066921;28;20186;-46
2022/02/04 16:21:49;;;;;;;8.47;4.20;;;8.30;99.90;;;;;;5065209;28;20205;-44
2022/02/04 16:24:38;;;;;;;2.60;2.40;;;8.30;99.90;;;;;;5071503;28;20237;-43
2022/02/04 16:28:37;;;;;;;5.80;3.23;;;8.30;99.90;;;;;;5054984;28;20226;-46
2022/02/04 16:29:58;;;;;;;4.07;3.07;;;8.30;99.90;;;;;;5059284;28;20316;-45
2022/02/04 16:32:25;;;;;;;3.00;2.80;;;8.30;99.90;;;;;;5070389;28;20194;-44
2022/02/04 16:34:54;;;;;;;7.70;3.80;;;8.20;99.90;;;;;;5069146;28;20221;-45
2022/02/04 16:37:28;;;;;;;6.77;4.67;;;8.20;99.90;;;;;;5058994;28;20368;-43
2022/02/04 16:39:54;;;;;;;3.87;3.50;;;8.20;99.90;;;;;;5067014;28;20210;-43
2022/02/04 16:42:23;;;;;;;6.67;4.33;;;8.20;99.90;;;;;;5059846;28;20202;-47
2022/02/04 16:44:50;;;;;;;7.70;4.93;;;8.20;99.90;;;;;;5073059;28;20645;-43
2022/02/04 16:47:18;;;;;;;8.47;4.70;;;8.20;99.90;;;;;;5076647;28;20322;-44
2022/02/04 16:49:44;;;;;;;15.40;6.60;;;8.10;99.90;;;;;;5079110;28;20214;-43
2022/02/04 16:52:12;;;;;;;5.03;4.17;;;8.10;99.90;;;;;;5066239;28;20209;-43
2022/02/04 16:54:39;;;;;;;12.30;6.53;;;8.10;99.90;;;;;;5081747;28;20702;-43
2022/02/04 16:57:06;;;;;;;18.80;8.33;;;8.10;99.90;;;;;;5056855;28;20883;-45
2022/02/04 16:59:35;;;;;;;11.60;6.37;;;8.10;99.90;;;;;;5070805;28;20202;-43
2022/02/04 17:02:03;;;;;;;22.63;8.10;;;8.00;99.90;;;;;;5072403;28;20202;-50
2022/02/04 17:04:30;;;;;;;5.70;4.37;;;8.00;99.90;;;;;;5082952;28;20194;-49
2022/02/04 17:07:01;;;;;;;6.83;5.13;;;7.90;99.90;;;;;;5072895;28;20218;-47
2022/02/04 17:09:32;;;;;;;2.17;1.40;;;7.90;99.90;;;;;;5068059;28;20214;-44
2022/02/04 17:12:03;;;;;;;0.60;0.60;;;7.50;99.90;;;;;;5068719;28;20209;-46
2022/02/04 17:14:31;;;;;;;3.47;0.70;;;6.60;99.90;;;;;;5057494;28;20225;-45
2022/02/04 17:16:59;;;;;;;2.20;0.80;;;6.10;99.90;;;;;;5071132;28;20709;-44